Terminal Aerodrome Forecast
Issued by NWS

Home | Current Version | Previous Version | Text Only | Print | Product List | Glossary On
Versions: 1 2 3 4 5 6 7 8 9 10 11 12 13 14 15 16
000
FTUS45 KABQ 030520
TAFGUP
TAF
KGUP 030520Z 0306/0406 04008KT P6SM VCSH BKN080
      TEMPO 0306/0308 VRB15G35KT -TSRA BKN060CB
     FM030800 VRB04KT P6SM BKN080
     FM031800 28008KT P6SM FEW080
     FM032200 29010KT P6SM VCTS SCT080CB BKN150
     FM040200 22007KT P6SM VCSH BKN080=

USA.gov is the U.S. government's official web portal to all federal, state and local government web resources and services.